This is the latest recevied weather packets stored in our database for station/object M0TJX-1. If no packets are shown the sender has not sent any weather packets the latest 10 day(s).
| Time | Temp. | Humidity | Pressure | Rain* | Wind** | Luminosity | Snow |
|---|---|---|---|---|---|---|---|
| 1777200210 | 17.22° C | 49% | 1024.6 hPa | 0 mm | - | - | - |
| 1777199558 | 16.67° C | 52% | 1024.5 hPa | 0 mm | - | - | - |
| 1777199311 | 16.67° C | 52% | 1024.5 hPa | 0 mm | - | - | - |
| 1777198410 | 16.67° C | 50% | 1024.5 hPa | 0 mm | - | - | - |
| 1777197510 | 15.56° C | 54% | 1024.6 hPa | 0 mm | - | - | - |
| 1777196612 | 15° C | 56% | 1024.7 hPa | 0 mm | - | - | - |
| 1777195711 | 15° C | 58% | 1024.8 hPa | 0 mm | - | - | - |
| 1777194811 | 14.44° C | 63% | 1024.7 hPa | 0 mm | - | - | - |
| 1777193911 | 13.89° C | 62% | 1024.8 hPa | 0 mm | - | - | - |
| 1777193011 | 13.33° C | 65% | 1024.7 hPa | 0 mm | - | - | - |
| 1777192111 | 12.22° C | 68% | 1024.7 hPa | 0 mm | - | - | - |
| 1777191211 | 11.11° C | 70% | 1024.8 hPa | 0 mm | - | - | - |
| 1777190311 | 10° C | 74% | 1024.6 hPa | 0 mm | - | - | - |
| 1777189411 | 9.44° C | 77% | 1024.6 hPa | 0 mm | - | - | - |
| 1777187611 | 8.33° C | 79% | 1024.5 hPa | 0 mm | - | - | - |
| 1777186711 | 8.33° C | 79% | 1024.5 hPa | 0 mm | - | - | - |
| 1777185811 | 7.78° C | 79% | 1024.4 hPa | 0 mm | - | - | - |
| 1777184911 | 7.78° C | 81% | 1024.5 hPa | 0 mm | - | - | - |
| 1777184011 | 7.22° C | 82% | 1024.4 hPa | 0 mm | - | - | - |
| 1777183111 | 6.67° C | 84% | 1024.2 hPa | 0 mm | - | - | - |
| 1777182211 | 6.67° C | 84% | 1024 hPa | 0 mm | - | - | - |
| 1777181311 | 6.67° C | 83% | 1023.8 hPa | 0 mm | - | - | - |
| 1777180411 | 6.67° C | 82% | 1023.7 hPa | 0 mm | - | - | - |
| 1777179511 | 6.67° C | 82% | 1023.4 hPa | 0 mm | - | - | - |
| 1777178611 | 6.67° C | 83% | 1023.3 hPa | 0 mm | - | - | - |
* Rain latest hour (hover to see other rain measurements)
** Current wind speed in m/s (hover to see current wind gust speed)